Airfield :
LOGIN :

Register | Disclaimer

   EN    FR    IT 

 










Legend :    VFR   Marginal VFR   IFR   Intensive IFR   Very Intensive IFR
Visi :
Ceiling :
>= 8 km
>= 3000ft
5 to 8 km
1000 to 3000 ft
1500m to 5 km
500 to 1000 ft
800 to 1500m
200 to 500 ft
< 800m
< 200 ft
Symbols :   Thunderstorms  Fog  Heavy snow  Heavy precipitations  Wind > 20 kt
SIGMETs :     Misc.  Thunderstorms  Icing  Turbulence  Mountain Waves  Volcanic Ashes







- Airport Elevation : 202 ft
- IATA code : LGW
- Download approach charts


EGKK - London Gatwick

CURRENT METAR :
  • 200320Z 35010KT 3500 DZ BR BKN005 09/09 Q1017

EXPIRED METARs :
  • 200250Z 34006KT 3000 DZ BKN004 09/09 Q1017
  • 200220Z 34007KT 3300 DZ BKN005 09/09 Q1016
  • 200150Z 33008KT 2500 DZ OVC005 09/09 Q1016
  • 200120Z 33007KT 2400 DZ OVC005 09/09 Q1016
  • 200050Z 32007KT 2000 DZ OVC004 09/09 Q1016

TAF AMD TAF EGKK
Valid from the 20 at 00:00 until the 21 at 06:00 UTC


200044Z 2000/2106 34007KT 7000 BKN008
TEMPO 2000/2011 3000 DZ BR BKN003
BECMG 2012/2015 9999 BKN018
TEMPO 2015/2101 BKN012
PROB30
TEMPO 2017/2024 6000 -DZ BKN009
PROB40
TEMPO 2101/2106 BKN013
No reported NOTAMs for that airfield.



MET'MAP, your aeronautical weather chart ! - Copyright ORBIFLY December 2007 - Disclaimer

ORBIFLY MET'MAP TEAM :

Programming & Development : Alexandra Zaïnal
Concept & Development : Baudouin d'Aumeries
Co-Development & Prog : Marc-Olivier Méhu
Technical & hardware support : Manuel Goepfert

Contact : metmap@orbifly.com




SOURCES & CREDITS :

   NOAA